Time;durP1;ratioP1;P1;durP2;ratioP2;P2;SDS_P1;SDS_P2;PMS_P1;PMS_P2;Temp;Humidity;BMP_temperature;BMP_pressure;BME280_temperature;BME280_humidity;BME280_pressure;Samples;Min_cycle;Max_cycle;Signal;HPM_P1;HPM_P2
2023/05/02 00:00:02;;;;;;;31.10;19.92;;;13.00;99.90;;;;;;5029241;28;20041;-74
2023/05/02 00:02:33;;;;;;;30.50;18.17;;;13.00;99.90;;;;;;5027864;28;20050;-72
2023/05/02 00:05:01;;;;;;;34.58;19.45;;;13.00;99.90;;;;;;5029535;28;20128;-73
2023/05/02 00:07:28;;;;;;;25.13;15.70;;;13.10;99.90;;;;;;5017875;28;20052;-73
2023/05/02 00:09:56;;;;;;;32.03;17.77;;;13.10;99.90;;;;;;5029369;28;20049;-73
2023/05/02 00:12:24;;;;;;;28.27;17.95;;;13.10;99.90;;;;;;5018287;28;20064;-73
2023/05/02 00:14:51;;;;;;;25.58;16.80;;;13.00;99.90;;;;;;5028812;28;20502;-73
2023/05/02 00:17:19;;;;;;;28.20;18.92;;;13.10;99.90;;;;;;5028525;28;20041;-73
2023/05/02 00:19:48;;;;;;;27.48;18.77;;;13.10;99.90;;;;;;5029084;28;20061;-74
2023/05/02 00:22:15;;;;;;;29.20;17.35;;;13.10;99.90;;;;;;5027725;28;20046;-73
2023/05/02 00:24:43;;;;;;;33.50;19.88;;;13.10;99.90;;;;;;5028330;28;20040;-73
2023/05/02 00:27:11;;;;;;;38.70;22.13;;;13.10;99.90;;;;;;5028594;28;20435;-73
2023/05/02 00:29:38;;;;;;;36.10;20.55;;;13.20;99.90;;;;;;5028226;28;20052;-74
2023/05/02 00:32:06;;;;;;;39.63;22.08;;;13.10;99.90;;;;;;5018588;28;20041;-73
2023/05/02 00:34:34;;;;;;;36.25;22.10;;;13.10;99.90;;;;;;5028111;28;20070;-74
2023/05/02 00:37:03;;;;;;;35.30;19.98;;;13.10;99.90;;;;;;5028342;28;20056;-74
2023/05/02 00:39:30;;;;;;;37.63;21.17;;;13.00;99.90;;;;;;5017284;28;20121;-73
2023/05/02 00:41:58;;;;;;;31.85;20.20;;;13.00;99.90;;;;;;5027936;28;20504;-73
2023/05/02 00:44:25;;;;;;;31.52;18.80;;;13.00;99.90;;;;;;5027506;28;20037;-74
2023/05/02 00:46:53;;;;;;;26.75;16.85;;;13.00;99.90;;;;;;5028695;28;20042;-74
2023/05/02 00:49:21;;;;;;;24.88;16.23;;;13.00;99.90;;;;;;5010834;28;20116;-73
2023/05/02 00:51:48;;;;;;;24.75;16.40;;;12.90;99.90;;;;;;5027146;28;20047;-73
2023/05/02 00:54:17;;;;;;;46.05;29.90;;;12.90;99.90;;;;;;5009965;28;20041;-73
2023/05/02 00:56:45;;;;;;;19.10;12.52;;;13.00;99.90;;;;;;5010499;28;20054;-72
2023/05/02 00:59:13;;;;;;;21.90;14.02;;;13.00;99.90;;;;;;5010404;28;20563;-74
2023/05/02 01:01:51;;;;;;;23.13;13.43;;;13.00;99.90;;;;;;5009920;28;20048;-74
2023/05/02 01:04:30;;;;;;;17.83;12.20;;;13.10;99.90;;;;;;5027308;28;20049;-74
2023/05/02 01:07:09;;;;;;;19.70;12.05;;;13.10;99.90;;;;;;5027667;28;20050;-72
2023/05/02 01:09:49;;;;;;;16.83;10.68;;;13.10;99.90;;;;;;5010044;28;20055;-74
2023/05/02 01:12:24;;;;;;;15.45;10.23;;;13.10;99.90;;;;;;5027874;28;20037;-73
2023/05/02 01:14:54;;;;;;;21.02;13.60;;;13.10;99.90;;;;;;5009750;28;20048;-73
2023/05/02 01:17:25;;;;;;;27.13;16.13;;;13.10;99.90;;;;;;5010293;28;20140;-73
2023/05/02 01:19:55;;;;;;;26.55;14.65;;;13.10;99.90;;;;;;5009764;28;20050;-72
2023/05/02 01:22:24;;;;;;;23.02;14.82;;;13.10;99.90;;;;;;5009680;28;20446;-73
2023/05/02 01:25:04;;;;;;;22.65;14.23;;;13.10;99.90;;;;;;5026792;28;20478;-73
2023/05/02 01:27:48;;;;;;;18.27;10.98;;;13.20;99.90;;;;;;5010397;28;20409;-73
2023/05/02 01:30:20;;;;;;;19.75;12.10;;;13.20;99.90;;;;;;5009272;28;20033;-73
2023/05/02 01:32:50;;;;;;;20.70;13.43;;;13.20;99.90;;;;;;5028732;28;20048;-73
2023/05/02 01:35:20;;;;;;;21.50;13.45;;;13.20;99.90;;;;;;5028942;28;20079;-73
2023/05/02 01:37:49;;;;;;;20.55;11.80;;;13.20;99.90;;;;;;5025827;28;20033;-73
2023/05/02 01:40:21;;;;;;;17.50;11.57;;;13.20;99.90;;;;;;5010089;28;20505;-73
2023/05/02 01:42:51;;;;;;;22.08;12.35;;;13.20;99.90;;;;;;5043367;23;20052;-75
2023/05/02 01:45:22;;;;;;;18.38;11.63;;;13.20;99.90;;;;;;5013966;28;20074;-76
2023/05/02 01:47:50;;;;;;;16.48;11.20;;;13.30;99.90;;;;;;4983976;28;20046;-77
2023/05/02 01:50:22;;;;;;;23.08;12.13;;;13.20;99.90;;;;;;4992490;28;20045;-74
2023/05/02 01:52:52;;;;;;;18.52;12.00;;;13.30;99.90;;;;;;4992681;28;20042;-75
2023/05/02 01:55:21;;;;;;;22.08;12.13;;;13.30;99.90;;;;;;4992000;28;20050;-75
2023/05/02 01:57:50;;;;;;;18.48;11.98;;;13.30;99.90;;;;;;4981979;28;20042;-77
2023/05/02 02:00:21;;;;;;;17.15;10.75;;;13.30;99.90;;;;;;4990550;28;20038;-75
2023/05/02 02:02:50;;;;;;;18.60;11.02;;;13.30;99.90;;;;;;4973167;28;20061;-75
2023/05/02 02:05:20;;;;;;;15.40;10.13;;;13.30;99.90;;;;;;4989204;28;20178;-75
2023/05/02 02:07:49;;;;;;;13.77;9.73;;;13.30;99.90;;;;;;4972297;28;20102;-76
2023/05/02 02:10:16;;;;;;;14.80;9.23;;;13.30;99.90;;;;;;4987624;28;20101;-75
2023/05/02 02:12:59;;;;;;;14.43;9.38;;;13.40;99.90;;;;;;4988602;28;20082;-75
2023/05/02 02:15:29;;;;;;;15.93;9.48;;;13.30;99.90;;;;;;4988869;28;20065;-75
2023/05/02 02:18:00;;;;;;;17.65;11.60;;;13.30;99.90;;;;;;4988823;28;20066;-74
2023/05/02 02:20:31;;;;;;;19.20;12.48;;;13.30;99.90;;;;;;4970041;28;20054;-75
2023/05/02 02:23:00;;;;;;;18.67;12.18;;;13.40;99.90;;;;;;4989386;28;20050;-75
2023/05/02 02:25:28;;;;;;;21.30;12.02;;;13.40;99.90;;;;;;4989594;28;20070;-75
2023/05/02 02:27:56;;;;;;;22.63;13.02;;;13.40;99.90;;;;;;4989282;28;20038;-74
2023/05/02 02:30:27;;;;;;;30.23;14.07;;;13.30;99.90;;;;;;4989141;28;20042;-74
2023/05/02 02:32:55;;;;;;;19.05;10.23;;;13.30;99.90;;;;;;4993353;28;20091;-76
2023/05/02 02:35:23;;;;;;;22.58;10.93;;;13.40;99.90;;;;;;4992761;28;20043;-77
2023/05/02 02:38:03;;;;;;;22.27;12.02;;;13.30;99.90;;;;;;4994921;28;20050;-75
2023/05/02 02:40:37;;;;;;;21.83;10.88;;;13.30;99.90;;;;;;4999968;28;20038;-74
2023/05/02 02:43:11;;;;;;;14.60;9.10;;;13.30;99.90;;;;;;4998658;28;20748;-74
2023/05/02 02:45:47;;;;;;;16.27;8.65;;;13.30;99.90;;;;;;4976143;28;20094;-74
2023/05/02 02:48:26;;;;;;;13.35;8.35;;;13.20;99.90;;;;;;4973544;28;20507;-75
2023/05/02 02:51:11;;;;;;;16.13;9.15;;;13.10;99.90;;;;;;4971128;28;20057;-75
2023/05/02 02:53:51;;;;;;;18.52;10.95;;;13.10;99.90;;;;;;4971036;28;20077;-75
2023/05/02 02:56:26;;;;;;;14.10;8.40;;;13.10;99.90;;;;;;4970981;28;20047;-75
2023/05/02 02:58:58;;;;;;;15.43;9.13;;;13.10;99.90;;;;;;4972885;28;20046;-75
2023/05/02 03:01:31;;;;;;;16.70;9.88;;;13.20;99.90;;;;;;4970970;28;20098;-76
2023/05/02 03:03:59;;;;;;;13.45;9.48;;;13.20;99.90;;;;;;4970425;28;20558;-75
2023/05/02 03:06:27;;;;;;;11.05;7.80;;;13.20;99.90;;;;;;4972508;28;20058;-74
2023/05/02 03:08:55;;;;;;;11.35;8.48;;;13.30;99.90;;;;;;4971723;28;20673;-74
2023/05/02 03:11:29;;;;;;;11.30;7.95;;;13.20;99.90;;;;;;4971968;28;20089;-75
2023/05/02 03:13:57;;;;;;;12.73;7.47;;;13.20;99.90;;;;;;4986800;28;20043;-73
2023/05/02 03:16:35;;;;;;;12.35;8.02;;;13.20;99.90;;;;;;4971083;28;20038;-74
2023/05/02 03:19:05;;;;;;;10.82;8.70;;;13.20;99.90;;;;;;4986690;28;20098;-75
2023/05/02 03:21:34;;;;;;;12.27;8.40;;;13.20;99.90;;;;;;4970418;28;20050;-75
2023/05/02 03:24:08;;;;;;;16.20;8.63;;;13.30;99.90;;;;;;4969950;28;20150;-75
2023/05/02 03:26:36;;;;;;;11.55;7.95;;;13.30;99.90;;;;;;4969935;28;20510;-75
2023/05/02 03:29:05;;;;;;;11.15;8.23;;;13.30;99.90;;;;;;4971146;28;20038;-75
2023/05/02 03:31:38;;;;;;;12.07;8.40;;;13.30;99.90;;;;;;4970236;28;20057;-75
2023/05/02 03:34:07;;;;;;;11.63;6.82;;;13.30;99.90;;;;;;4971683;28;20038;-76
2023/05/02 03:36:36;;;;;;;7.68;6.07;;;13.20;99.90;;;;;;4971968;28;20055;-75
2023/05/02 03:39:03;;;;;;;10.85;7.22;;;13.20;99.90;;;;;;4974429;28;20074;-76
2023/05/02 03:41:31;;;;;;;13.10;7.78;;;13.10;99.90;;;;;;4970478;28;20070;-75
2023/05/02 03:44:05;;;;;;;12.57;8.13;;;13.10;99.90;;;;;;4970859;28;20059;-75
2023/05/02 03:46:32;;;;;;;19.05;12.35;;;13.10;99.90;;;;;;4971280;28;20047;-74
2023/05/02 03:49:02;;;;;;;21.33;12.45;;;13.20;99.90;;;;;;4986329;28;20102;-74
2023/05/02 03:51:30;;;;;;;14.05;9.95;;;13.20;99.90;;;;;;4970953;28;20074;-74
2023/05/02 03:54:00;;;;;;;15.77;10.82;;;13.20;99.90;;;;;;4970951;28;20681;-75
2023/05/02 03:56:28;;;;;;;14.98;9.07;;;13.30;99.90;;;;;;4989280;28;20520;-75
2023/05/02 03:59:09;;;;;;;12.98;8.48;;;13.30;99.90;;;;;;4976987;28;20093;-75
2023/05/02 04:01:36;;;;;;;10.95;8.30;;;13.40;99.90;;;;;;4971650;28;20503;-75
2023/05/02 04:04:07;;;;;;;11.68;8.35;;;13.50;99.90;;;;;;4970423;28;20057;-76
2023/05/02 04:06:39;;;;;;;10.57;8.20;;;13.50;99.90;;;;;;4970832;28;20047;-76
2023/05/02 04:09:08;;;;;;;14.02;10.32;;;13.60;99.90;;;;;;4970263;28;20130;-75
2023/05/02 04:11:43;;;;;;;9.40;7.28;;;13.60;99.90;;;;;;4969120;28;20062;-74
2023/05/02 04:14:12;;;;;;;12.75;7.32;;;13.70;99.90;;;;;;4985962;28;20055;-75
2023/05/02 04:16:42;;;;;;;11.43;7.90;;;13.80;99.90;;;;;;4969725;28;20126;-75
2023/05/02 04:19:12;;;;;;;13.65;9.00;;;13.80;99.90;;;;;;4970433;28;20499;-76
2023/05/02 04:21:40;;;;;;;10.68;7.90;;;13.90;99.90;;;;;;4974258;28;20061;-75
2023/05/02 04:24:10;;;;;;;12.45;8.35;;;14.00;99.90;;;;;;4981158;28;20039;-75
2023/05/02 04:26:38;;;;;;;11.65;8.27;;;14.00;99.90;;;;;;4981020;28;20513;-75
2023/05/02 04:29:10;;;;;;;18.23;9.15;;;14.10;99.90;;;;;;4974106;28;20137;-75
2023/05/02 04:31:38;;;;;;;11.68;8.13;;;14.10;99.90;;;;;;4969036;28;20532;-76
2023/05/02 04:34:06;;;;;;;10.65;7.22;;;14.20;99.90;;;;;;4969421;28;20479;-76
2023/05/02 04:36:41;;;;;;;15.43;6.97;;;14.30;99.90;;;;;;4970093;28;20055;-76
2023/05/02 04:39:15;;;;;;;15.80;7.78;;;14.30;99.90;;;;;;4970419;28;20047;-77
2023/05/02 04:41:49;;;;;;;9.77;7.63;;;14.40;99.90;;;;;;4972799;28;20392;-76
2023/05/02 04:44:17;;;;;;;11.10;8.07;;;14.40;99.90;;;;;;4971690;28;20071;-76
2023/05/02 04:46:45;;;;;;;12.77;7.97;;;14.40;99.90;;;;;;4972091;28;20054;-75
2023/05/02 04:49:13;;;;;;;10.10;7.95;;;14.50;99.90;;;;;;4977681;28;20070;-76
2023/05/02 04:51:45;;;;;;;14.02;9.32;;;14.50;99.90;;;;;;4981943;28;20039;-77
2023/05/02 04:54:13;;;;;;;12.20;8.52;;;14.70;99.90;;;;;;4977772;28;20098;-75
2023/05/02 04:56:42;;;;;;;14.10;8.38;;;14.80;99.90;;;;;;4975790;28;20053;-75
2023/05/02 04:59:10;;;;;;;13.55;9.18;;;14.90;99.90;;;;;;4976683;28;20047;-76
2023/05/02 05:01:38;;;;;;;16.58;11.48;;;15.00;99.90;;;;;;4980537;28;20070;-74
2023/05/02 05:04:08;;;;;;;21.70;11.20;;;15.00;99.90;;;;;;4977876;28;20447;-75
2023/05/02 05:06:35;;;;;;;15.57;10.95;;;15.10;99.90;;;;;;4987766;28;20041;-75
2023/05/02 05:09:05;;;;;;;14.30;9.98;;;15.20;99.90;;;;;;4971589;28;20573;-74
2023/05/02 05:11:35;;;;;;;17.50;11.20;;;15.30;99.90;;;;;;4970055;28;20050;-75
2023/05/02 05:14:04;;;;;;;16.45;10.95;;;15.40;99.90;;;;;;4970668;28;20137;-75
2023/05/02 05:16:33;;;;;;;12.35;9.13;;;15.50;99.90;;;;;;4975562;28;20074;-75
2023/05/02 05:19:01;;;;;;;11.60;9.20;;;15.50;99.90;;;;;;4976775;28;20046;-76
2023/05/02 05:21:28;;;;;;;12.05;9.00;;;15.50;99.90;;;;;;4973681;28;20050;-76
2023/05/02 05:23:57;;;;;;;11.65;8.00;;;15.60;99.90;;;;;;4968686;28;20053;-75
2023/05/02 05:26:30;;;;;;;12.32;8.48;;;15.60;99.90;;;;;;4985115;28;20051;-75
2023/05/02 05:28:58;;;;;;;13.82;9.77;;;15.60;99.90;;;;;;4969357;28;20290;-77
2023/05/02 05:31:30;;;;;;;14.93;10.43;;;15.70;99.90;;;;;;4983798;28;20047;-76
2023/05/02 05:34:01;;;;;;;14.88;10.88;;;15.80;99.90;;;;;;4985158;28;20101;-76
2023/05/02 05:36:28;;;;;;;15.85;12.00;;;15.80;99.90;;;;;;4969724;28;20055;-76
2023/05/02 05:38:56;;;;;;;17.42;12.98;;;15.80;99.90;;;;;;4967515;28;20047;-75
2023/05/02 05:41:24;;;;;;;17.60;12.90;;;15.90;99.90;;;;;;4968728;28;20700;-75
2023/05/02 05:44:00;;;;;;;19.83;13.00;;;15.90;99.90;;;;;;4964094;28;20047;-76
2023/05/02 05:46:29;;;;;;;21.30;14.07;;;15.90;99.90;;;;;;4974311;28;20782;-75
2023/05/02 05:48:57;;;;;;;21.25;14.32;;;15.90;99.90;;;;;;4957690;28;20047;-76
2023/05/02 05:51:27;;;;;;;23.25;14.68;;;15.90;99.90;;;;;;4974808;28;20073;-75
2023/05/02 05:53:56;;;;;;;25.15;17.83;;;16.00;99.90;;;;;;4958180;28;20074;-77
2023/05/02 05:56:23;;;;;;;20.80;13.60;;;16.00;99.90;;;;;;4957468;28;20419;-77
2023/05/02 05:58:59;;;;;;;17.20;13.38;;;16.00;99.90;;;;;;4958466;28;20051;-75
2023/05/02 06:01:27;;;;;;;18.15;13.23;;;16.10;99.90;;;;;;4959745;28;20035;-76
2023/05/02 06:03:55;;;;;;;18.67;13.18;;;16.20;99.90;;;;;;4958360;28;20062;-77
2023/05/02 06:06:23;;;;;;;20.48;13.55;;;16.30;99.90;;;;;;4962042;28;20051;-76
2023/05/02 06:08:50;;;;;;;20.23;12.68;;;16.30;99.90;;;;;;4961587;28;20035;-76
2023/05/02 06:11:18;;;;;;;18.17;13.20;;;16.40;99.90;;;;;;4961098;28;20054;-76
2023/05/02 06:13:45;;;;;;;20.15;13.82;;;16.50;99.90;;;;;;4961607;28;20709;-76
2023/05/02 06:16:16;;;;;;;25.88;14.55;;;16.60;99.90;;;;;;4963022;28;20134;-76
2023/05/02 06:18:46;;;;;;;26.50;14.23;;;16.70;99.90;;;;;;4962122;28;20077;-75
2023/05/02 06:21:14;;;;;;;20.33;13.93;;;16.80;99.90;;;;;;4964305;28;20042;-76
2023/05/02 06:23:42;;;;;;;22.90;13.55;;;16.80;99.90;;;;;;4962828;28;20126;-75
2023/05/02 06:26:09;;;;;;;18.42;13.05;;;16.90;99.90;;;;;;4962407;28;20027;-76
2023/05/02 06:28:37;;;;;;;19.42;12.75;;;17.00;99.90;;;;;;4965914;28;20451;-75
2023/05/02 06:31:05;;;;;;;18.75;12.60;;;17.00;99.90;;;;;;4963069;28;20055;-76
2023/05/02 06:33:34;;;;;;;21.85;12.88;;;17.10;99.90;;;;;;4963820;28;20053;-76
2023/05/02 06:36:02;;;;;;;22.58;13.35;;;17.20;99.90;;;;;;4962849;28;20455;-74
2023/05/02 06:38:30;;;;;;;23.48;14.40;;;17.20;99.90;;;;;;4963601;28;20035;-76
2023/05/02 06:40:57;;;;;;;22.88;15.80;;;17.30;99.90;;;;;;4963656;28;20134;-76
2023/05/02 06:43:25;;;;;;;19.98;15.25;;;17.30;99.90;;;;;;4971787;28;20573;-74
2023/05/02 06:45:54;;;;;;;23.95;16.15;;;17.40;99.90;;;;;;4993091;28;20048;-74
2023/05/02 06:48:22;;;;;;;25.10;16.40;;;17.40;99.90;;;;;;4990212;28;20052;-74
2023/05/02 06:50:53;;;;;;;28.25;19.02;;;17.30;99.90;;;;;;4992627;28;20646;-75
2023/05/02 06:53:24;;;;;;;28.13;19.45;;;17.30;99.90;;;;;;4993584;28;20133;-77
2023/05/02 06:55:51;;;;;;;25.30;19.30;;;17.30;99.90;;;;;;4992588;28;20050;-74
2023/05/02 06:58:19;;;;;;;28.27;18.98;;;17.40;99.90;;;;;;4993728;28;20065;-74
2023/05/02 07:00:47;;;;;;;31.00;22.00;;;17.60;99.90;;;;;;4993373;28;20038;-76
2023/05/02 07:03:15;;;;;;;29.00;20.08;;;17.70;99.90;;;;;;5005438;28;20112;-75
2023/05/02 07:05:42;;;;;;;30.63;20.27;;;17.90;99.90;;;;;;4996512;28;20134;-75
2023/05/02 07:08:11;;;;;;;34.97;24.48;;;18.10;99.90;;;;;;5001075;28;20045;-76
2023/05/02 07:10:39;;;;;;;32.20;22.77;;;18.10;99.90;;;;;;5002357;28;20104;-75
2023/05/02 07:13:06;;;;;;;38.97;25.52;;;18.10;99.90;;;;;;4999482;28;20056;-74
2023/05/02 07:15:34;;;;;;;34.95;25.50;;;18.10;99.90;;;;;;4995759;28;20054;-76
2023/05/02 07:18:03;;;;;;;34.70;21.92;;;18.30;99.90;;;;;;4998967;28;20054;-76
2023/05/02 07:20:31;;;;;;;26.80;20.77;;;18.40;99.90;;;;;;5002592;28;26468;-76
2023/05/02 07:22:58;;;;;;;27.13;19.95;;;18.50;99.90;;;;;;5004857;28;20053;-76
2023/05/02 07:25:28;;;;;;;27.60;19.15;;;18.70;99.90;;;;;;5006368;28;20050;-75
2023/05/02 07:27:55;;;;;;;25.95;19.27;;;18.90;99.90;;;;;;5007877;28;20050;-75
2023/05/02 07:30:23;;;;;;;32.40;20.88;;;19.20;99.90;;;;;;5004180;28;20053;-75
2023/05/02 07:32:51;;;;;;;27.42;18.88;;;19.30;99.90;;;;;;5004513;28;20481;-75
2023/05/02 07:35:18;;;;;;;25.55;18.77;;;19.00;99.90;;;;;;5002314;28;20049;-75
2023/05/02 07:37:46;;;;;;;28.92;19.75;;;19.20;99.90;;;;;;5003572;28;20058;-78
2023/05/02 07:40:13;;;;;;;25.15;20.33;;;19.40;99.90;;;;;;5005141;28;20066;-74
2023/05/02 07:42:43;;;;;;;30.98;18.55;;;19.60;99.90;;;;;;4990709;28;20038;-75
2023/05/02 07:45:11;;;;;;;30.55;19.85;;;19.50;99.90;;;;;;4964789;28;20043;-76
2023/05/02 07:47:40;;;;;;;29.38;18.48;;;19.60;99.90;;;;;;4964576;28;20142;-75
2023/05/02 07:50:09;;;;;;;27.27;20.38;;;19.90;99.90;;;;;;4961944;29;20433;-77
2023/05/02 07:52:37;;;;;;;35.80;20.52;;;20.10;99.90;;;;;;4962399;28;20043;-75
2023/05/02 07:55:05;;;;;;;30.65;18.45;;;20.00;99.90;;;;;;4962466;28;20051;-76
2023/05/02 07:57:32;;;;;;;28.60;18.80;;;19.90;99.90;;;;;;5010314;23;20045;-74
2023/05/02 08:00:02;;;;;;;23.10;16.90;;;19.80;99.90;;;;;;5019730;28;20132;-73
2023/05/02 08:02:42;;;;;;;26.45;17.90;;;19.80;99.90;;;;;;5024216;28;20056;-74
2023/05/02 08:05:10;;;;;;;27.40;18.42;;;19.90;99.90;;;;;;5002605;28;20465;-73
2023/05/02 08:07:37;;;;;;;27.13;18.35;;;19.90;99.90;;;;;;5020236;28;20056;-74
2023/05/02 08:10:06;;;;;;;29.35;18.40;;;19.90;99.90;;;;;;5019188;28;20050;-73
2023/05/02 08:12:38;;;;;;;27.52;18.98;;;19.90;99.90;;;;;;5021097;28;20406;-74
2023/05/02 08:15:10;;;;;;;27.88;18.02;;;19.80;99.90;;;;;;5022413;28;20125;-73
2023/05/02 08:17:37;;;;;;;29.00;17.65;;;19.80;99.90;;;;;;5001550;28;20042;-75
2023/05/02 08:20:06;;;;;;;19.17;14.50;;;19.90;99.90;;;;;;5003100;28;20639;-73
2023/05/02 08:22:33;;;;;;;22.98;14.40;;;20.00;99.90;;;;;;5018170;28;20042;-74
2023/05/02 08:25:01;;;;;;;23.42;17.08;;;20.20;99.90;;;;;;5018187;28;20082;-73
2023/05/02 08:27:28;;;;;;;23.98;16.58;;;20.30;99.90;;;;;;5025928;28;20042;-73
2023/05/02 08:29:55;;;;;;;27.33;17.23;;;20.30;99.90;;;;;;5019802;28;20046;-74
2023/05/02 08:32:25;;;;;;;30.35;19.90;;;20.30;99.90;;;;;;5001125;28;20109;-73
2023/05/02 08:34:55;;;;;;;29.85;20.15;;;20.50;99.90;;;;;;5020260;28;20041;-73
2023/05/02 08:37:23;;;;;;;27.15;19.13;;;20.80;99.90;;;;;;5018508;28;20111;-73
2023/05/02 08:39:50;;;;;;;28.80;18.58;;;21.00;99.90;;;;;;5018975;28;20046;-73
2023/05/02 08:42:19;;;;;;;28.15;19.05;;;21.30;99.90;;;;;;5018948;28;20048;-73
2023/05/02 08:44:47;;;;;;;33.10;20.25;;;21.40;99.90;;;;;;5018431;28;20052;-73
2023/05/02 08:47:16;;;;;;;24.55;17.33;;;21.30;99.90;;;;;;5019709;28;20044;-73
2023/05/02 08:49:46;;;;;;;24.35;16.48;;;21.30;99.90;;;;;;5018196;28;20045;-74
2023/05/02 08:52:15;;;;;;;20.10;15.93;;;21.20;99.90;;;;;;5001286;28;20155;-73
2023/05/02 08:54:45;;;;;;;24.98;16.23;;;21.30;99.90;;;;;;5017516;28;20046;-73
2023/05/02 08:57:12;;;;;;;19.25;12.48;;;21.50;96.10;;;;;;4998243;28;20038;-74
2023/05/02 08:59:40;;;;;;;19.23;14.85;;;21.50;90.00;;;;;;5015917;28;20382;-74
2023/05/02 09:02:18;;;;;;;23.27;13.98;;;21.70;90.30;;;;;;5017212;28;20044;-74
2023/05/02 09:04:52;;;;;;;18.85;12.93;;;21.80;89.30;;;;;;5017836;28;20088;-72
2023/05/02 09:07:20;;;;;;;16.88;11.75;;;22.00;88.30;;;;;;5018178;28;20470;-73
2023/05/02 09:09:48;;;;;;;7.93;5.60;;;21.80;86.40;;;;;;5017862;28;20048;-74
2023/05/02 09:12:16;;;;;;;6.97;5.80;;;21.60;79.60;;;;;;5001065;28;20045;-72
2023/05/02 09:14:44;;;;;;;6.25;5.32;;;21.60;78.40;;;;;;5017585;28;20128;-74
2023/05/02 09:17:12;;;;;;;7.32;5.18;;;21.80;76.20;;;;;;5018403;28;20037;-73
2023/05/02 09:19:39;;;;;;;7.85;5.40;;;21.70;74.80;;;;;;5016175;28;20029;-72
2023/05/02 09:22:08;;;;;;;8.32;5.30;;;21.60;77.30;;;;;;5017583;28;20136;-73
2023/05/02 09:24:35;;;;;;;6.38;4.93;;;21.70;77.80;;;;;;4997210;28;20054;-73
2023/05/02 09:27:04;;;;;;;8.27;5.55;;;21.40;74.70;;;;;;5015233;28;20045;-73
2023/05/02 09:29:36;;;;;;;5.97;5.38;;;21.10;78.70;;;;;;5016573;28;20037;-74
2023/05/02 09:32:05;;;;;;;6.07;5.10;;;21.10;81.10;;;;;;5018791;28;20048;-73
2023/05/02 09:34:32;;;;;;;5.88;4.80;;;21.30;89.60;;;;;;5019983;28;20045;-74
2023/05/02 09:37:00;;;;;;;8.90;5.35;;;21.40;78.50;;;;;;5020630;28;20049;-74
2023/05/02 09:39:29;;;;;;;9.57;5.13;;;21.50;77.10;;;;;;5019050;28;20038;-72
2023/05/02 09:41:58;;;;;;;7.72;5.32;;;21.60;76.30;;;;;;5022834;28;20144;-73
2023/05/02 09:44:27;;;;;;;5.97;5.10;;;21.70;78.40;;;;;;5019885;28;20666;-73
2023/05/02 09:46:56;;;;;;;7.25;6.10;;;21.70;76.00;;;;;;5021074;28;20045;-73
2023/05/02 09:49:41;;;;;;;9.70;6.53;;;21.80;77.00;;;;;;5020122;28;20056;-75
2023/05/02 09:52:13;;;;;;;9.68;5.88;;;21.80;79.50;;;;;;5022012;28;20520;-78
2023/05/02 09:54:42;;;;;;;8.98;5.72;;;21.90;77.60;;;;;;5005208;28;20053;-75
2023/05/02 09:57:09;;;;;;;11.50;8.98;;;21.90;78.50;;;;;;5021166;28;20046;-76
2023/05/02 09:59:38;;;;;;;11.65;9.38;;;21.40;76.40;;;;;;5003812;28;20045;-76
2023/05/02 10:02:09;;;;;;;10.52;8.57;;;21.10;80.70;;;;;;5020343;28;20037;-76
2023/05/02 10:04:38;;;;;;;7.82;6.22;;;21.10;90.20;;;;;;5020800;28;20056;-74
2023/05/02 10:07:06;;;;;;;7.60;5.90;;;21.20;91.60;;;;;;5024838;28;20505;-76
2023/05/02 10:09:35;;;;;;;8.82;7.05;;;21.40;91.90;;;;;;5022008;28;20046;-75
2023/05/02 10:12:06;;;;;;;7.72;5.30;;;21.50;88.80;;;;;;5017567;28;20048;-74
2023/05/02 10:14:40;;;;;;;7.65;5.70;;;21.70;79.60;;;;;;5020268;28;20069;-73
2023/05/02 10:17:14;;;;;;;8.85;6.03;;;21.70;78.00;;;;;;5022537;28;20041;-73
2023/05/02 10:19:51;;;;;;;7.82;6.00;;;21.60;75.70;;;;;;5020541;28;20133;-73
2023/05/02 10:22:20;;;;;;;8.10;5.60;;;21.70;75.10;;;;;;5020704;28;20053;-75
2023/05/02 10:24:51;;;;;;;9.43;5.97;;;21.70;72.60;;;;;;5029627;28;20121;-74
2023/05/02 10:27:21;;;;;;;6.97;5.78;;;21.50;76.20;;;;;;5027439;28;20083;-73
2023/05/02 10:29:48;;;;;;;8.35;6.25;;;21.40;78.00;;;;;;5018983;28;20037;-75
2023/05/02 10:32:18;;;;;;;7.03;6.28;;;21.20;80.40;;;;;;5018585;28;20057;-75
2023/05/02 10:34:47;;;;;;;8.80;6.85;;;21.00;85.10;;;;;;5020338;28;20041;-73
2023/05/02 10:37:17;;;;;;;26.27;9.68;;;21.00;97.20;;;;;;5020991;28;20049;-73
2023/05/02 10:39:45;;;;;;;18.77;9.30;;;21.00;99.90;;;;;;5019684;28;20057;-74
2023/05/02 10:42:14;;;;;;;12.95;7.47;;;21.10;99.90;;;;;;5001442;28;20072;-73
2023/05/02 10:44:43;;;;;;;8.60;6.18;;;21.10;99.90;;;;;;5019330;28;20061;-74
2023/05/02 10:47:21;;;;;;;7.82;6.07;;;21.30;99.90;;;;;;5020818;28;20068;-74
2023/05/02 10:49:53;;;;;;;9.15;6.50;;;21.60;99.90;;;;;;5022540;28;20058;-74
2023/05/02 10:52:28;;;;;;;7.43;6.30;;;21.90;98.60;;;;;;5007896;28;20037;-73
2023/05/02 10:55:14;;;;;;;15.98;13.00;;;22.00;92.40;;;;;;5002922;28;20042;-74
2023/05/02 10:58:11;;;;;;;8.57;6.75;;;22.30;84.00;;;;;;5020685;28;20046;-73
2023/05/02 11:00:40;;;;;;;10.00;7.43;;;22.20;77.20;;;;;;5018872;28;20042;-74
2023/05/02 11:03:10;;;;;;;9.88;7.00;;;22.10;76.70;;;;;;5019907;28;20125;-74
2023/05/02 11:06:06;;;;;;;6.95;5.68;;;22.00;73.50;;;;;;5020338;28;20045;-74
2023/05/02 11:08:34;;;;;;;6.70;5.25;;;22.10;71.90;;;;;;5019150;28;20049;-73
2023/05/02 11:11:47;;;;;;;9.60;5.35;;;22.20;68.80;;;;;;5018752;28;20121;-73
2023/05/02 11:14:43;;;;;;;5.65;4.93;;;22.20;66.40;;;;;;4920821;29;20060;-73
2023/05/02 11:17:12;;;;;;;8.93;5.93;;;22.00;65.00;;;;;;4920086;29;20139;-74
2023/05/02 11:20:28;;;;;;;8.80;6.30;;;22.10;64.80;;;;;;4921412;29;20055;-72
2023/05/02 11:22:57;;;;;;;9.57;5.40;;;22.40;65.40;;;;;;4919120;29;20147;-73
2023/05/02 11:25:32;;;;;;;6.88;5.18;;;22.90;64.10;;;;;;4906782;29;20036;-74
2023/05/02 11:28:00;;;;;;;7.30;5.07;;;23.20;62.30;;;;;;4922472;29;20055;-74
2023/05/02 11:30:54;;;;;;;6.93;5.72;;;23.30;60.90;;;;;;4920596;29;20160;-74
2023/05/02 11:33:23;;;;;;;6.07;4.90;;;23.30;59.00;;;;;;4867030;29;20188;-73
2023/05/02 11:35:51;;;;;;;8.55;5.07;;;23.60;57.90;;;;;;4921092;29;20055;-73
2023/05/02 11:38:21;;;;;;;6.95;4.95;;;23.40;58.30;;;;;;4905476;29;20062;-74
2023/05/02 11:40:56;;;;;;;12.35;5.53;;;23.50;57.70;;;;;;4920141;29;20123;-72
2023/05/02 11:43:25;;;;;;;9.77;5.38;;;23.40;57.00;;;;;;4920187;29;20114;-74
2023/05/02 11:45:53;;;;;;;7.80;5.30;;;23.40;57.10;;;;;;4920281;29;20043;-72
2023/05/02 11:48:26;;;;;;;12.48;9.40;;;23.60;55.90;;;;;;4966621;28;20067;-73
2023/05/02 11:50:55;;;;;;;13.52;11.20;;;23.60;55.90;;;;;;5019653;28;20047;-74
2023/05/02 11:53:24;;;;;;;8.85;6.25;;;23.70;55.60;;;;;;5021128;28;20041;-74
2023/05/02 11:55:54;;;;;;;9.52;6.78;;;23.70;55.70;;;;;;5018451;28;20460;-74
2023/05/02 11:58:23;;;;;;;7.30;5.20;;;23.40;55.70;;;;;;5017930;28;20057;-73
2023/05/02 12:00:51;;;;;;;6.63;5.40;;;23.20;55.70;;;;;;5018980;28;20057;-73
2023/05/02 12:03:29;;;;;;;8.60;6.00;;;23.30;55.70;;;;;;4999943;28;20041;-73
2023/05/02 12:05:57;;;;;;;9.20;5.75;;;23.10;55.90;;;;;;5016080;28;20552;-73
2023/05/02 12:08:27;;;;;;;7.18;5.28;;;22.80;56.60;;;;;;5017990;28;20038;-74
2023/05/02 12:10:56;;;;;;;8.25;5.88;;;22.90;56.70;;;;;;5019462;28;20041;-73
2023/05/02 12:13:25;;;;;;;6.07;4.60;;;23.10;55.60;;;;;;5017720;28;20186;-73
2023/05/02 12:15:53;;;;;;;5.95;5.30;;;23.00;55.20;;;;;;5016587;28;20064;-73
2023/05/02 12:18:25;;;;;;;7.07;5.07;;;22.70;56.40;;;;;;5019497;28;20042;-73
2023/05/02 12:20:54;;;;;;;6.60;5.07;;;22.70;56.60;;;;;;5018903;28;20054;-74
2023/05/02 12:23:25;;;;;;;7.13;4.80;;;22.60;56.90;;;;;;5019730;28;20041;-74
2023/05/02 12:25:52;;;;;;;8.40;5.13;;;22.60;56.90;;;;;;5003526;28;20417;-73
2023/05/02 12:28:22;;;;;;;7.28;4.75;;;22.50;56.70;;;;;;5018416;28;20204;-73
2023/05/02 12:30:50;;;;;;;8.85;5.95;;;22.40;57.00;;;;;;5017773;28;20497;-72
2023/05/02 12:33:18;;;;;;;8.43;5.70;;;22.50;57.10;;;;;;5018222;28;20046;-73
2023/05/02 12:35:47;;;;;;;6.32;4.93;;;22.50;57.40;;;;;;5015680;28;20054;-75
2023/05/02 12:38:17;;;;;;;6.65;4.88;;;22.50;57.00;;;;;;5019430;28;20053;-73
2023/05/02 12:40:51;;;;;;;7.32;5.07;;;22.60;56.40;;;;;;5016951;28;20046;-74
2023/05/02 12:43:19;;;;;;;7.90;4.85;;;22.60;56.50;;;;;;5016155;28;20486;-73
2023/05/02 12:45:48;;;;;;;6.40;4.97;;;22.70;56.80;;;;;;5018596;28;20047;-73
2023/05/02 12:48:26;;;;;;;7.32;5.07;;;22.90;56.90;;;;;;5015705;28;20045;-73